Time;durP1;ratioP1;P1;durP2;ratioP2;P2;SDS_P1;SDS_P2;PMS_P1;PMS_P2;Temp;Humidity;BMP_temperature;BMP_pressure;BME280_temperature;BME280_humidity;BME280_pressure;Samples;Min_cycle;Max_cycle;Signal;HPM_P1;HPM_P2
2023/03/13 00:02:10;;;;;;;0.38;0.30;;;;;;;;;;5103455;28;20042;-92
2023/03/13 00:04:39;;;;;;;0.30;0.30;;;;;;;;;;5101841;28;20059;-91
2023/03/13 00:07:16;;;;;;;0.20;0.13;;;;;;;;;;5104681;28;20070;-90
2023/03/13 00:09:46;;;;;;;0.20;0.20;;;;;;;;;;5100582;28;20061;-94
2023/03/13 00:12:28;;;;;;;0.70;0.25;;;;;;;;;;5096594;28;20063;-91
2023/03/13 00:14:56;;;;;;;5.28;0.90;;;;;;;;;;5096929;28;20047;-90
2023/03/13 00:17:25;;;;;;;0.52;0.50;;;;;;;;;;5097417;28;20035;-91
2023/03/13 00:19:54;;;;;;;0.22;0.22;;;;;;;;;;5094717;28;20048;-91
2023/03/13 00:22:23;;;;;;;0.25;0.15;;;;;;;;;;5096781;28;20051;-90
2023/03/13 00:24:53;;;;;;;3.22;0.88;;;;;;;;;;5097192;28;20047;-92
2023/03/13 00:27:21;;;;;;;1.20;0.52;;;;;;;;;;5096284;28;20055;-94
2023/03/13 00:29:50;;;;;;;0.10;0.10;;;;;;;;;;5093995;28;20039;-91
2023/03/13 00:32:18;;;;;;;0.40;0.40;;;;;;;;;;5092985;28;20059;-92
2023/03/13 00:34:47;;;;;;;1.02;0.40;;;;;;;;;;5100232;28;20044;-94
2023/03/13 00:37:15;;;;;;;7.13;0.45;;;;;;;;;;5095483;28;20052;-91
2023/03/13 00:39:44;;;;;;;0.50;0.38;;;;;;;;;;5096329;28;20591;-92
2023/03/13 00:42:14;;;;;;;0.20;0.20;;;;;;;;;;5096898;28;20047;-92
2023/03/13 00:44:43;;;;;;;0.10;0.10;;;;;;;;;;5094010;28;20070;-93
2023/03/13 00:47:11;;;;;;;2.08;0.20;;;;;;;;;;5099083;28;20135;-93
2023/03/13 00:49:39;;;;;;;0.20;0.20;;;;;;;;;;5096774;28;20072;-92
2023/03/13 00:52:08;;;;;;;0.20;0.20;;;;;;;;;;5096487;28;20376;-92
2023/03/13 00:54:36;;;;;;;0.73;0.20;;;;;;;;;;5093664;28;20056;-92
2023/03/13 00:57:04;;;;;;;0.30;0.30;;;;;;;;;;5097068;28;20048;-91
2023/03/13 00:59:34;;;;;;;0.90;0.30;;;;;;;;;;5097387;28;20359;-92
2023/03/13 01:02:17;;;;;;;0.20;0.15;;;;;;;;;;5104191;28;20050;-91
2023/03/13 01:04:45;;;;;;;0.13;0.13;;;;;;;;;;5102584;28;20048;-94
2023/03/13 01:07:34;;;;;;;0.10;0.10;;;;;;;;;;5099453;28;20423;-91
2023/03/13 01:10:02;;;;;;;0.52;0.43;;;;;;;;;;5099971;28;20060;-92
2023/03/13 01:12:30;;;;;;;0.43;0.43;;;;;;;;;;5146015;22;20249;-91
2023/03/13 01:15:00;;;;;;;0.65;0.43;;;;;;;;;;5091798;28;20058;-91
2023/03/13 01:17:29;;;;;;;0.10;0.10;;;;;;;;;;5095471;28;20043;-90
2023/03/13 01:19:57;;;;;;;0.20;0.20;;;;;;;;;;5094290;28;20044;-91
2023/03/13 01:22:26;;;;;;;3.33;0.63;;;;;;;;;;5099821;28;20138;-90
2023/03/13 01:24:55;;;;;;;0.20;0.20;;;;;;;;;;5093628;28;20155;-90
2023/03/13 01:27:23;;;;;;;0.47;0.22;;;;;;;;;;5096942;28;20476;-91
2023/03/13 01:29:52;;;;;;;0.30;0.30;;;;;;;;;;5095081;28;20058;-91
2023/03/13 01:32:22;;;;;;;0.40;0.30;;;;;;;;;;5101028;28;20054;-90
2023/03/13 01:34:50;;;;;;;1.85;0.88;;;;;;;;;;5098685;28;20047;-91
2023/03/13 01:37:19;;;;;;;0.10;0.10;;;;;;;;;;5099033;28;20487;-90
2023/03/13 01:39:48;;;;;;;0.40;0.32;;;;;;;;;;5097761;28;20050;-90
2023/03/13 01:42:17;;;;;;;0.10;0.10;;;;;;;;;;5090673;28;20497;-91
2023/03/13 01:44:50;;;;;;;0.10;0.10;;;;;;;;;;5092122;28;20574;-91
2023/03/13 01:47:18;;;;;;;0.20;0.20;;;;;;;;;;5090461;27;20048;-90
2023/03/13 01:49:49;;;;;;;0.43;0.43;;;;;;;;;;5092342;28;20049;-91
2023/03/13 01:52:19;;;;;;;0.57;0.30;;;;;;;;;;5093350;28;20044;-90
2023/03/13 01:54:49;;;;;;;8.50;0.40;;;;;;;;;;5092832;28;20044;-90
2023/03/13 01:57:19;;;;;;;0.32;0.32;;;;;;;;;;5090713;28;20052;-89
2023/03/13 01:59:50;;;;;;;0.82;0.47;;;;;;;;;;5095623;28;20062;-90
2023/03/13 02:02:19;;;;;;;0.77;0.35;;;;;;;;;;5091483;28;20060;-90
2023/03/13 02:04:51;;;;;;;0.75;0.20;;;;;;;;;;5091298;28;20052;-90
2023/03/13 02:07:22;;;;;;;0.38;0.38;;;;;;;;;;5091020;28;20051;-92
2023/03/13 02:09:53;;;;;;;0.20;0.20;;;;;;;;;;5093384;28;20048;-90
2023/03/13 02:12:24;;;;;;;0.10;0.10;;;;;;;;;;5091105;28;20419;-91
2023/03/13 02:14:53;;;;;;;0.10;0.10;;;;;;;;;;5095120;28;20062;-90
2023/03/13 02:17:22;;;;;;;0.20;0.20;;;;;;;;;;5087730;28;20044;-90
2023/03/13 02:19:52;;;;;;;0.20;0.20;;;;;;;;;;5090583;28;20043;-90
2023/03/13 02:22:24;;;;;;;0.10;0.10;;;;;;;;;;5096483;28;20685;-91
2023/03/13 02:24:57;;;;;;;1.77;0.40;;;;;;;;;;5094402;28;20135;-90
2023/03/13 02:27:27;;;;;;;0.10;0.10;;;;;;;;;;5094614;28;20050;-90
2023/03/13 02:29:56;;;;;;;0.10;0.10;;;;;;;;;;5087423;28;20474;-91
2023/03/13 02:32:24;;;;;;;0.10;0.10;;;;;;;;;;5096653;28;20043;-90
2023/03/13 02:34:54;;;;;;;0.10;0.10;;;;;;;;;;5092422;28;20056;-90
2023/03/13 02:37:24;;;;;;;0.20;0.20;;;;;;;;;;5089212;28;20055;-90
2023/03/13 02:39:53;;;;;;;0.45;0.45;;;;;;;;;;5087532;28;20068;-90
2023/03/13 02:42:22;;;;;;;0.20;0.20;;;;;;;;;;5091393;28;20100;-89
2023/03/13 02:44:52;;;;;;;0.57;0.57;;;;;;;;;;5093379;28;20043;-91
2023/03/13 02:47:20;;;;;;;0.22;0.22;;;;;;;;;;5094991;28;20059;-90
2023/03/13 02:49:49;;;;;;;0.20;0.20;;;;;;;;;;5089127;28;20149;-91
2023/03/13 02:52:19;;;;;;;1.10;0.22;;;;;;;;;;5089718;28;20401;-90
2023/03/13 02:54:49;;;;;;;0.13;0.13;;;;;;;;;;5095766;28;20035;-90
2023/03/13 02:57:17;;;;;;;0.40;0.25;;;;;;;;;;5091329;28;20965;-90
2023/03/13 02:59:46;;;;;;;0.20;0.20;;;;;;;;;;5092520;28;20051;-90
2023/03/13 03:02:16;;;;;;;0.20;0.20;;;;;;;;;;5087612;28;20130;-90
2023/03/13 03:04:44;;;;;;;0.85;0.25;;;;;;;;;;5094578;28;20055;-91
2023/03/13 03:07:13;;;;;;;0.20;0.20;;;;;;;;;;5092329;28;20130;-90
2023/03/13 03:09:41;;;;;;;0.90;0.50;;;;;;;;;;5092185;28;20048;-90
2023/03/13 03:12:11;;;;;;;0.35;0.30;;;;;;;;;;5087272;28;20050;-90
2023/03/13 03:14:40;;;;;;;0.22;0.22;;;;;;;;;;5089736;28;20055;-90
2023/03/13 03:17:08;;;;;;;1.27;0.40;;;;;;;;;;5088613;28;20059;-90
2023/03/13 03:19:38;;;;;;;0.10;0.10;;;;;;;;;;5094628;28;20456;-90
2023/03/13 03:22:06;;;;;;;0.40;0.20;;;;;;;;;;5091252;28;20044;-91
2023/03/13 03:24:35;;;;;;;0.20;0.20;;;;;;;;;;5094185;28;20055;-90
2023/03/13 03:27:06;;;;;;;0.20;0.20;;;;;;;;;;5085160;28;20119;-89
2023/03/13 03:29:34;;;;;;;0.10;0.10;;;;;;;;;;5091938;28;20070;-90
2023/03/13 03:32:02;;;;;;;0.13;0.13;;;;;;;;;;5088399;28;20580;-90
2023/03/13 03:34:32;;;;;;;0.30;0.30;;;;;;;;;;5091214;28;20075;-91
2023/03/13 03:37:01;;;;;;;3.92;0.40;;;;;;;;;;5093625;28;20392;-89
2023/03/13 03:39:30;;;;;;;0.17;0.17;;;;;;;;;;5090440;28;20048;-90
2023/03/13 03:41:59;;;;;;;2.78;0.43;;;;;;;;;;5092013;28;20464;-90
2023/03/13 03:44:27;;;;;;;0.35;0.35;;;;;;;;;;5093206;28;20459;-90
2023/03/13 03:46:56;;;;;;;0.20;0.20;;;;;;;;;;5089979;28;20044;-90
2023/03/13 03:49:24;;;;;;;0.13;0.13;;;;;;;;;;5097805;28;20451;-90
2023/03/13 03:51:53;;;;;;;0.10;0.10;;;;;;;;;;5089606;28;20055;-90
2023/03/13 03:54:23;;;;;;;0.25;0.20;;;;;;;;;;5094860;28;20936;-90
2023/03/13 03:56:51;;;;;;;0.10;0.10;;;;;;;;;;5090850;28;20040;-90
2023/03/13 03:59:20;;;;;;;0.20;0.20;;;;;;;;;;5091877;28;20047;-91
2023/03/13 04:01:48;;;;;;;0.10;0.10;;;;;;;;;;5086992;28;20439;-91
2023/03/13 04:04:17;;;;;;;0.32;0.30;;;;;;;;;;5091381;28;20090;-91
2023/03/13 04:06:46;;;;;;;0.15;0.15;;;;;;;;;;5093371;28;20486;-90
2023/03/13 04:09:14;;;;;;;0.10;0.10;;;;;;;;;;5095783;28;20052;-90
2023/03/13 04:11:44;;;;;;;0.10;0.10;;;;;;;;;;5086711;28;20514;-90
2023/03/13 04:14:12;;;;;;;0.63;0.32;;;;;;;;;;5088935;28;20055;-90
2023/03/13 04:16:41;;;;;;;0.10;0.10;;;;;;;;;;5087923;28;20055;-90
2023/03/13 04:19:10;;;;;;;0.20;0.20;;;;;;;;;;5089235;28;20055;-90
2023/03/13 04:21:40;;;;;;;0.35;0.17;;;;;;;;;;5086962;28;20048;-91
2023/03/13 04:24:22;;;;;;;0.15;0.15;;;;;;;;;;5092473;28;20051;-89
2023/03/13 04:26:52;;;;;;;0.10;0.10;;;;;;;;;;5087945;27;20048;-90
2023/03/13 04:29:21;;;;;;;0.40;0.28;;;;;;;;;;5092412;28;20073;-90
2023/03/13 04:31:49;;;;;;;0.10;0.10;;;;;;;;;;5092303;28;20047;-91
2023/03/13 04:34:18;;;;;;;0.85;0.70;;;;;;;;;;5093891;28;20048;-90
2023/03/13 04:36:46;;;;;;;0.28;0.28;;;;;;;;;;5090804;27;20495;-90
2023/03/13 04:39:15;;;;;;;0.17;0.15;;;;;;;;;;5093068;28;20051;-91
2023/03/13 04:41:43;;;;;;;0.10;0.10;;;;;;;;;;5088298;28;20134;-90
2023/03/13 04:44:13;;;;;;;0.20;0.20;;;;;;;;;;5087757;28;20051;-90
2023/03/13 04:46:41;;;;;;;0.17;0.17;;;;;;;;;;5086646;28;20123;-91
2023/03/13 04:49:10;;;;;;;0.25;0.25;;;;;;;;;;5093200;28;20043;-90
2023/03/13 04:51:38;;;;;;;0.30;0.30;;;;;;;;;;5092206;28;20059;-92
2023/03/13 04:54:06;;;;;;;0.10;0.10;;;;;;;;;;5087439;28;20051;-91
2023/03/13 04:56:35;;;;;;;0.43;0.43;;;;;;;;;;5088387;28;20127;-90
2023/03/13 04:59:13;;;;;;;0.40;0.28;;;;;;;;;;5091089;28;20052;-91
2023/03/13 05:01:42;;;;;;;0.10;0.10;;;;;;;;;;5084392;28;20048;-91
2023/03/13 05:04:12;;;;;;;0.22;0.22;;;;;;;;;;5087468;28;20134;-91
2023/03/13 05:06:42;;;;;;;0.10;0.10;;;;;;;;;;5085647;28;20036;-91
2023/03/13 05:09:11;;;;;;;0.15;0.15;;;;;;;;;;5090691;28;20055;-91
2023/03/13 05:11:41;;;;;;;0.20;0.20;;;;;;;;;;5084865;28;20067;-90
2023/03/13 05:14:10;;;;;;;2.55;0.40;;;;;;;;;;5084791;28;20059;-90
2023/03/13 05:16:40;;;;;;;0.45;0.45;;;;;;;;;;5080341;28;20052;-91
2023/03/13 05:19:09;;;;;;;18.90;0.45;;;;;;;;;;5092954;28;20061;-90
2023/03/13 05:21:37;;;;;;;0.38;0.38;;;;;;;;;;5091540;28;20039;-90
2023/03/13 05:24:06;;;;;;;0.30;0.30;;;;;;;;;;5085772;28;20056;-91
2023/03/13 05:26:34;;;;;;;0.30;0.20;;;;;;;;;;5088742;28;20062;-90
2023/03/13 05:29:03;;;;;;;0.13;0.13;;;;;;;;;;5087219;28;20076;-90
2023/03/13 05:31:31;;;;;;;0.35;0.30;;;;;;;;;;5087371;28;20044;-91
2023/03/13 05:34:03;;;;;;;0.10;0.10;;;;;;;;;;5086048;28;20040;-90
2023/03/13 05:36:31;;;;;;;0.35;0.20;;;;;;;;;;5080000;28;20132;-90
2023/03/13 05:39:00;;;;;;;0.17;0.17;;;;;;;;;;5089851;28;20497;-91
2023/03/13 05:41:28;;;;;;;0.15;0.15;;;;;;;;;;5091278;28;20117;-90
2023/03/13 05:44:01;;;;;;;0.10;0.10;;;;;;;;;;5089399;28;20807;-90
2023/03/13 05:46:29;;;;;;;0.20;0.20;;;;;;;;;;5085782;28;20046;-91
2023/03/13 05:49:13;;;;;;;0.13;0.13;;;;;;;;;;5089667;28;20058;-91
2023/03/13 05:51:41;;;;;;;0.40;0.20;;;;;;;;;;5085126;28;20048;-91
2023/03/13 05:54:10;;;;;;;0.15;0.15;;;;;;;;;;5092726;28;20046;-92
2023/03/13 05:56:43;;;;;;;0.20;0.20;;;;;;;;;;5088611;28;20167;-92
2023/03/13 05:59:12;;;;;;;0.35;0.35;;;;;;;;;;5092385;28;20052;-91
2023/03/13 06:01:56;;;;;;;0.10;0.10;;;;;;;;;;5090119;28;20253;-91
2023/03/13 06:07:36;;;;;;;0.45;0.45;;;;;;;;;;5089152;28;20138;-92
2023/03/13 06:10:19;;;;;;;0.20;0.20;;;;;;;;;;5096071;28;20151;-92
2023/03/13 06:12:53;;;;;;;0.40;0.40;;;;;;;;;;5084529;28;20056;-93
2023/03/13 06:15:22;;;;;;;0.30;0.30;;;;;;;;;;5089262;28;20050;-94
2023/03/13 06:17:50;;;;;;;0.55;0.40;;;;;;;;;;5093547;28;20044;-93
2023/03/13 06:20:21;;;;;;;0.20;0.20;;;;;;;;;;5096326;28;20079;-92
2023/03/13 06:22:49;;;;;;;0.85;0.85;;;;;;;;;;5104571;28;20051;-94
2023/03/13 06:25:18;;;;;;;0.17;0.17;;;;;;;;;;5095941;28;20086;-92
2023/03/13 06:27:46;;;;;;;0.20;0.20;;;;;;;;;;5099564;28;20124;-92
2023/03/13 06:33:19;;;;;;;1.20;0.20;;;;;;;;;;5096428;28;20048;-93
2023/03/13 06:35:58;;;;;;;0.20;0.20;;;;;;;;;;5096617;28;20055;-92
2023/03/13 06:38:28;;;;;;;0.20;0.20;;;;;;;;;;5093525;28;20040;-91
2023/03/13 06:40:56;;;;;;;0.80;0.45;;;;;;;;;;5096904;28;20480;-92
2023/03/13 06:43:26;;;;;;;0.20;0.20;;;;;;;;;;5099869;28;20444;-93
2023/03/13 06:45:54;;;;;;;2.80;0.52;;;;;;;;;;5100924;28;20091;-93
2023/03/13 06:48:23;;;;;;;1.75;0.30;;;;;;;;;;5095887;28;20054;-92
2023/03/13 06:50:53;;;;;;;0.20;0.20;;;;;;;;;;5095820;28;20048;-92
2023/03/13 06:53:22;;;;;;;0.10;0.10;;;;;;;;;;5095898;28;20522;-94
2023/03/13 06:58:37;;;;;;;0.13;0.13;;;;;;;;;;5094267;28;20055;-92
2023/03/13 07:01:07;;;;;;;0.30;0.30;;;;;;;;;;5090418;28;20062;-93
2023/03/13 07:03:36;;;;;;;0.40;0.40;;;;;;;;;;5095462;28;20055;-92
2023/03/13 07:06:04;;;;;;;2.40;0.50;;;;;;;;;;5098342;28;21313;-93
2023/03/13 07:08:35;;;;;;;1.05;0.45;;;;;;;;;;5097782;28;20048;-92
2023/03/13 07:11:04;;;;;;;1.13;0.32;;;;;;;;;;5098354;28;20537;-92
2023/03/13 07:13:33;;;;;;;0.10;0.10;;;;;;;;;;5097756;28;20050;-92
2023/03/13 07:16:03;;;;;;;0.25;0.17;;;;;;;;;;5095746;28;20463;-93
2023/03/13 07:18:31;;;;;;;0.93;0.38;;;;;;;;;;5091615;28;20086;-93
2023/03/13 07:21:03;;;;;;;0.63;0.25;;;;;;;;;;5094287;28;20119;-93
2023/03/13 07:23:33;;;;;;;0.63;0.45;;;;;;;;;;5098615;28;20063;-92
2023/03/13 07:26:04;;;;;;;0.17;0.17;;;;;;;;;;5092098;28;20094;-93
2023/03/13 07:28:33;;;;;;;0.68;0.30;;;;;;;;;;5094421;28;20488;-94
2023/03/13 07:31:06;;;;;;;0.20;0.20;;;;;;;;;;5096907;28;20079;-92
2023/03/13 07:33:35;;;;;;;0.10;0.10;;;;;;;;;;5095753;28;20051;-94
2023/03/13 07:36:04;;;;;;;0.10;0.10;;;;;;;;;;5090992;28;20442;-94
2023/03/13 07:38:32;;;;;;;0.10;0.10;;;;;;;;;;5097563;28;20048;-93
2023/03/13 07:41:02;;;;;;;0.55;0.38;;;;;;;;;;5094808;28;20467;-92
2023/03/13 07:43:31;;;;;;;0.10;0.10;;;;;;;;;;5099097;28;20054;-94
2023/03/13 07:46:01;;;;;;;2.10;0.20;;;;;;;;;;5096706;28;20036;-92
2023/03/13 07:48:32;;;;;;;1.17;0.30;;;;;;;;;;5095347;28;20089;-93
2023/03/13 07:51:01;;;;;;;1.30;0.40;;;;;;;;;;5090713;28;20541;-92
2023/03/13 07:53:41;;;;;;;0.20;0.20;;;;;;;;;;5093662;28;20062;-92
2023/03/13 07:56:12;;;;;;;0.20;0.20;;;;;;;;;;5094118;28;20047;-93
2023/03/13 07:58:42;;;;;;;0.32;0.22;;;;;;;;;;5094835;28;20079;-94
2023/03/13 08:01:11;;;;;;;0.50;0.32;;;;;;;;;;5094359;28;20059;-93
2023/03/13 08:03:40;;;;;;;2.17;0.50;;;;;;;;;;5085694;28;20047;-93
2023/03/13 08:06:10;;;;;;;0.20;0.20;;;;;;;;;;5095739;28;20100;-92
2023/03/13 08:08:39;;;;;;;1.30;0.40;;;;;;;;;;5095057;28;20069;-93
2023/03/13 08:11:08;;;;;;;0.10;0.10;;;;;;;;;;5090215;28;20134;-95
2023/03/13 08:13:40;;;;;;;0.22;0.20;;;;;;;;;;5093024;28;20055;-93
2023/03/13 08:16:09;;;;;;;1.08;0.50;;;;;;;;;;5095141;28;20079;-93
2023/03/13 08:18:39;;;;;;;0.10;0.10;;;;;;;;;;5097155;28;20393;-94
2023/03/13 08:21:09;;;;;;;1.75;0.22;;;;;;;;;;5097016;28;20050;-93
2023/03/13 08:23:38;;;;;;;0.30;0.30;;;;;;;;;;5087308;28;20512;-93
2023/03/13 08:26:07;;;;;;;0.10;0.10;;;;;;;;;;5094217;28;20052;-95
2023/03/13 08:28:36;;;;;;;0.10;0.10;;;;;;;;;;5093644;28;20048;-93
2023/03/13 08:31:11;;;;;;;0.20;0.20;;;;;;;;;;5093592;28;20048;-96
2023/03/13 08:33:40;;;;;;;;;;;;;;;;;;5095899;28;20108;-94
2023/03/13 08:36:10;;;;;;;0.15;0.15;;;;;;;;;;5094770;28;19934;-96
2023/03/13 08:38:40;;;;;;;0.20;0.20;;;;;;;;;;5099679;28;20051;-96
2023/03/13 08:41:11;;;;;;;0.32;0.32;;;;;;;;;;5097320;28;20107;-95
2023/03/13 08:43:40;;;;;;;4.55;0.40;;;;;;;;;;5097973;28;20055;-96
2023/03/13 08:46:09;;;;;;;3.38;0.68;;;;;;;;;;5100482;28;20553;-95
2023/03/13 08:48:39;;;;;;;0.10;0.10;;;;;;;;;;5093164;28;20044;-95
2023/03/13 08:51:08;;;;;;;0.20;0.20;;;;;;;;;;5092316;28;20079;-95
2023/03/13 08:53:38;;;;;;;1.35;0.88;;;;;;;;;;5092211;28;20553;-93
2023/03/13 08:56:07;;;;;;;0.22;0.22;;;;;;;;;;5096118;28;20043;-94
2023/03/13 08:58:35;;;;;;;2.83;0.30;;;;;;;;;;5093271;28;20044;-93
2023/03/13 09:01:05;;;;;;;2.00;0.45;;;;;;;;;;5094129;28;20086;-94
2023/03/13 09:03:34;;;;;;;0.20;0.20;;;;;;;;;;5094263;28;20142;-94
2023/03/13 09:06:05;;;;;;;0.15;0.15;;;;;;;;;;5092251;28;20055;-94
2023/03/13 09:08:34;;;;;;;0.70;0.35;;;;;;;;;;5092116;28;20139;-93
2023/03/13 09:11:04;;;;;;;9.63;0.50;;;;;;;;;;5094523;28;20092;-95
2023/03/13 09:13:33;;;;;;;0.60;0.22;;;;;;;;;;5095437;28;20052;-94
2023/03/13 09:16:03;;;;;;;0.13;0.13;;;;;;;;;;5093887;28;20080;-94
2023/03/13 09:18:32;;;;;;;0.20;0.20;;;;;;;;;;5090843;28;20055;-94
2023/03/13 09:21:20;;;;;;;1.10;0.20;;;;;;;;;;5097526;28;20055;-94
2023/03/13 09:23:49;;;;;;;0.00;0.00;;;;;;;;;;5092908;28;20614;-96
2023/03/13 09:26:22;;;;;;;0.20;0.20;;;;;;;;;;5092635;28;20051;-86
2023/03/13 09:28:51;;;;;;;2.95;0.50;;;;;;;;;;5098071;28;20036;-94
2023/03/13 09:31:21;;;;;;;0.10;0.10;;;;;;;;;;5100730;28;20487;-92
2023/03/13 09:33:50;;;;;;;0.75;0.40;;;;;;;;;;5094353;28;20062;-96
2023/03/13 09:36:22;;;;;;;0.20;0.20;;;;;;;;;;5093703;28;20043;-94
2023/03/13 09:38:51;;;;;;;0.40;0.35;;;;;;;;;;5099748;28;20056;-94
2023/03/13 09:41:22;;;;;;;3.20;0.30;;;;;;;;;;5097410;28;20052;-92
2023/03/13 09:43:54;;;;;;;0.88;0.60;;;;;;;;;;5094157;28;20135;-94
2023/03/13 09:46:25;;;;;;;0.32;0.20;;;;;;;;;;5098358;28;20101;-94
2023/03/13 09:48:56;;;;;;;0.17;0.17;;;;;;;;;;5098916;28;20048;-94
2023/03/13 09:51:28;;;;;;;0.17;0.10;;;;;;;;;;5096595;28;20573;-95
2023/03/13 09:54:00;;;;;;;0.25;0.25;;;;;;;;;;5093715;28;20048;-94
2023/03/13 09:56:31;;;;;;;0.10;0.10;;;;;;;;;;5092923;28;20136;-94
2023/03/13 09:59:02;;;;;;;0.73;0.20;;;;;;;;;;5098808;28;20139;-94
2023/03/13 10:01:32;;;;;;;0.20;0.20;;;;;;;;;;5095339;28;20048;-94
2023/03/13 10:04:05;;;;;;;1.05;0.30;;;;;;;;;;5096768;28;20048;-94
2023/03/13 10:06:39;;;;;;;0.47;0.20;;;;;;;;;;5095355;28;20056;-93
2023/03/13 10:09:16;;;;;;;0.10;0.10;;;;;;;;;;5097872;28;20047;-93
2023/03/13 10:11:48;;;;;;;0.10;0.10;;;;;;;;;;5097297;28;20544;-93
2023/03/13 10:14:19;;;;;;;1.05;0.15;;;;;;;;;;5100689;28;20051;-93
2023/03/13 10:16:50;;;;;;;0.25;0.25;;;;;;;;;;5105897;28;20077;-94
2023/03/13 10:19:19;;;;;;;0.15;0.15;;;;;;;;;;5102784;28;20468;-95
2023/03/13 10:21:53;;;;;;;0.20;0.20;;;;;;;;;;5107165;28;20081;-94
2023/03/13 10:24:28;;;;;;;0.35;0.17;;;;;;;;;;5102689;28;20044;-93
2023/03/13 10:26:57;;;;;;;0.08;0.08;;;;;;;;;;5098106;28;20047;-94
2023/03/13 10:29:27;;;;;;;0.20;0.10;;;;;;;;;;5097686;28;20043;-93
2023/03/13 10:32:00;;;;;;;0.45;0.15;;;;;;;;;;5092605;28;20488;-92
2023/03/13 10:34:45;;;;;;;0.17;0.17;;;;;;;;;;5099023;28;20065;-94
2023/03/13 10:37:17;;;;;;;0.17;0.17;;;;;;;;;;5093995;28;20098;-93
2023/03/13 10:39:45;;;;;;;0.20;0.20;;;;;;;;;;5093455;28;20044;-93
2023/03/13 10:42:20;;;;;;;0.00;0.00;;;;;;;;;;5095739;28;20048;-94
2023/03/13 10:44:49;;;;;;;0.00;0.00;;;;;;;;;;5094153;28;20035;-92
2023/03/13 10:47:20;;;;;;;0.32;0.10;;;;;;;;;;5097406;28;20059;-93
2023/03/13 10:49:49;;;;;;;0.00;0.00;;;;;;;;;;5095910;28;20044;-92
2023/03/13 10:52:42;;;;;;;0.10;0.10;;;;;;;;;;5095504;28;20048;-94
2023/03/13 10:55:12;;;;;;;1.55;0.13;;;;;;;;;;5096821;28;20051;-92
2023/03/13 10:57:43;;;;;;;1.38;0.28;;;;;;;;;;5091582;28;20429;-93
2023/03/13 11:00:35;;;;;;;0.60;0.10;;;;;;;;;;5088649;28;20389;-92
2023/03/13 11:03:07;;;;;;;0.60;0.10;;;;;;;;;;5090526;28;20565;-93
2023/03/13 11:05:41;;;;;;;0.20;0.10;;;;;;;;;;5093523;28;20044;-93
2023/03/13 11:08:13;;;;;;;0.10;0.10;;;;;;;;;;5086967;28;20408;-93
2023/03/13 11:10:52;;;;;;;0.25;0.15;;;;;;;;;;5095310;28;20496;-93
2023/03/13 11:13:28;;;;;;;0.10;0.10;;;;;;;;;;5088450;28;20143;-93
2023/03/13 11:16:07;;;;;;;0.43;0.43;;;;;;;;;;5093042;28;20557;-93
2023/03/13 11:18:41;;;;;;;0.52;0.10;;;;;;;;;;5094201;28;20126;-95
2023/03/13 11:21:14;;;;;;;0.00;0.00;;;;;;;;;;5096690;28;20039;-91
2023/03/13 11:23:50;;;;;;;0.57;0.10;;;;;;;;;;5091816;28;20128;-93
2023/03/13 11:26:21;;;;;;;0.00;0.00;;;;;;;;;;5092297;28;20408;-94
2023/03/13 11:28:53;;;;;;;0.50;0.20;;;;;;;;;;5095651;28;20485;-92
2023/03/13 11:31:24;;;;;;;0.08;0.08;;;;;;;;;;5092320;28;20109;-91
2023/03/13 11:34:01;;;;;;;0.00;0.00;;;;;;;;;;5098131;28;20083;-91
2023/03/13 11:36:34;;;;;;;1.48;0.15;;;;;;;;;;5089225;28;20056;-91
2023/03/13 11:39:17;;;;;;;0.30;0.13;;;;;;;;;;5092788;28;20142;-91
2023/03/13 11:41:55;;;;;;;0.20;0.20;;;;;;;;;;5092059;28;20048;-91
2023/03/13 11:44:28;;;;;;;0.13;0.10;;;;;;;;;;5094152;28;20047;-90
2023/03/13 11:47:03;;;;;;;0.40;0.22;;;;;;;;;;5093244;28;20480;-91
2023/03/13 11:49:48;;;;;;;0.10;0.10;;;;;;;;;;5092352;28;20075;-91
2023/03/13 11:52:28;;;;;;;0.10;0.10;;;;;;;;;;5090080;28;20121;-90
2023/03/13 11:55:14;;;;;;;0.43;0.20;;;;;;;;;;5094477;28;20082;-91
2023/03/13 11:58:06;;;;;;;0.28;0.10;;;;;;;;;;5087330;28;20369;-90
2023/03/13 12:00:41;;;;;;;0.15;0.10;;;;;;;;;;5080516;28;20480;-92
2023/03/13 12:03:15;;;;;;;1.55;0.20;;;;;;;;;;5086471;28;20413;-91
2023/03/13 12:05:49;;;;;;;0.10;0.10;;;;;;;;;;5091855;28;20044;-91
2023/03/13 12:08:21;;;;;;;1.30;0.35;;;;;;;;;;5092947;28;20047;-91
2023/03/13 12:11:13;;;;;;;1.67;0.13;;;;;;;;;;5091741;28;20075;-91
2023/03/13 12:13:46;;;;;;;0.10;0.10;;;;;;;;;;5092100;28;20150;-91
2023/03/13 12:19:00;;;;;;;0.05;0.05;;;;;;;;;;5090188;28;20048;-90
2023/03/13 12:21:31;;;;;;;0.10;0.10;;;;;;;;;;5098889;28;20559;-93
2023/03/13 12:24:05;;;;;;;0.05;0.05;;;;;;;;;;5100924;28;20058;-93
2023/03/13 12:26:38;;;;;;;0.17;0.00;;;;;;;;;;5096350;28;20486;-92
2023/03/13 12:29:16;;;;;;;0.32;0.10;;;;;;;;;;5099353;28;20075;-92
2023/03/13 12:31:49;;;;;;;1.10;0.20;;;;;;;;;;5094174;28;20052;-93
2023/03/13 12:34:20;;;;;;;0.35;0.25;;;;;;;;;;5104401;28;20043;-93
2023/03/13 12:36:52;;;;;;;0.10;0.10;;;;;;;;;;5097236;28;20109;-93
2023/03/13 12:39:25;;;;;;;2.13;0.45;;;;;;;;;;5098022;28;20056;-90
2023/03/13 12:41:58;;;;;;;2.05;0.25;;;;;;;;;;5094037;28;20060;-92
2023/03/13 12:44:30;;;;;;;5.47;0.20;;;;;;;;;;5099891;28;20111;-92
2023/03/13 12:50:33;;;;;;;0.20;0.20;;;;;;;;;;5094759;28;20067;-91
2023/03/13 12:53:21;;;;;;;0.35;0.20;;;;;;;;;;5095313;28;20122;-95
2023/03/13 12:56:11;;;;;;;0.73;0.50;;;;;;;;;;5106451;28;20111;-92
2023/03/13 12:58:54;;;;;;;0.45;0.20;;;;;;;;;;5070521;28;20048;-93
2023/03/13 13:01:31;;;;;;;0.50;0.30;;;;;;;;;;5093713;28;20086;-93
2023/03/13 13:04:01;;;;;;;3.92;0.20;;;;;;;;;;5099255;28;20575;-92
2023/03/13 13:07:01;;;;;;;0.22;0.20;;;;;;;;;;5029002;28;20568;-85
2023/03/13 13:09:31;;;;;;;0.63;0.35;;;;;;;;;;5029414;28;20050;-94
2023/03/13 13:14:58;;;;;;;0.55;0.10;;;;;;;;;;5033310;28;20046;-93
2023/03/13 13:17:32;;;;;;;0.70;0.20;;;;;;;;;;5031332;28;20057;-93
2023/03/13 13:20:16;;;;;;;1.75;0.52;;;;;;;;;;5029723;28;20152;-91
2023/03/13 13:22:50;;;;;;;1.17;0.63;;;;;;;;;;5028452;28;20382;-93
2023/03/13 13:25:20;;;;;;;;;;;;;;;;;;5029459;28;20042;-94
2023/03/13 13:27:49;;;;;;;0.15;0.10;;;;;;;;;;5027705;28;20032;-93
2023/03/13 13:30:31;;;;;;;0.20;0.20;;;;;;;;;;5031943;28;20060;-93
2023/03/13 13:33:18;;;;;;;0.20;0.13;;;;;;;;;;5017914;28;20050;-95
2023/03/13 13:36:14;;;;;;;0.85;0.40;;;;;;;;;;5034043;28;20060;-94
2023/03/13 13:41:55;;;;;;;0.15;0.15;;;;;;;;;;4962597;28;20070;-94
2023/03/13 13:44:29;;;;;;;0.20;0.20;;;;;;;;;;5007268;28;20051;-95
2023/03/13 13:47:01;;;;;;;1.17;0.45;;;;;;;;;;5035153;28;20227;-94
2023/03/13 13:49:34;;;;;;;0.75;0.75;;;;;;;;;;5035196;28;20171;-95
2023/03/13 13:52:31;;;;;;;0.20;0.20;;;;;;;;;;5035044;28;20049;-94
2023/03/13 13:55:02;;;;;;;0.47;0.25;;;;;;;;;;5036507;28;20045;-95
2023/03/13 13:57:39;;;;;;;0.38;0.30;;;;;;;;;;5038708;28;20045;-94
2023/03/13 14:00:18;;;;;;;0.20;0.10;;;;;;;;;;5085193;28;20056;-93
2023/03/13 14:02:50;;;;;;;0.13;0.13;;;;;;;;;;5110719;28;20080;-93
2023/03/13 14:05:33;;;;;;;0.32;0.15;;;;;;;;;;5101513;28;20046;-94
2023/03/13 14:08:05;;;;;;;0.20;0.20;;;;;;;;;;5095447;28;20065;-94
2023/03/13 14:10:37;;;;;;;1.30;0.40;;;;;;;;;;5098778;28;20389;-95
2023/03/13 14:13:12;;;;;;;0.17;0.17;;;;;;;;;;5095527;28;20078;-94
2023/03/13 14:15:41;;;;;;;;;;;;;;;;;;5098752;28;20564;-94
2023/03/13 14:18:13;;;;;;;0.10;0.10;;;;;;;;;;5096443;28;19927;-94
2023/03/13 14:20:52;;;;;;;0.40;0.20;;;;;;;;;;5095869;28;20048;-93
2023/03/13 14:23:38;;;;;;;1.05;0.40;;;;;;;;;;5098764;28;20059;-93
2023/03/13 14:26:11;;;;;;;3.42;0.30;;;;;;;;;;5093442;28;20139;-95
2023/03/13 14:28:41;;;;;;;1.75;0.38;;;;;;;;;;5093128;28;20055;-94
2023/03/13 14:31:10;;;;;;;0.65;0.30;;;;;;;;;;5102111;28;20377;-91
2023/03/13 14:33:39;;;;;;;0.28;0.25;;;;;;;;;;5099155;28;20051;-94
2023/03/13 14:36:08;;;;;;;0.10;0.10;;;;;;;;;;5096481;28;20055;-94
2023/03/13 14:38:40;;;;;;;0.57;0.30;;;;;;;;;;5099504;28;20142;-94
2023/03/13 14:41:23;;;;;;;0.43;0.03;;;;;;;;;;5094085;28;20636;-93
2023/03/13 14:43:52;;;;;;;0.13;0.13;;;;;;;;;;5097888;28;20064;-94
2023/03/13 14:46:26;;;;;;;0.43;0.28;;;;;;;;;;5088350;28;20051;-93
2023/03/13 14:48:55;;;;;;;0.13;0.13;;;;;;;;;;5094104;28;20043;-95
2023/03/13 14:51:26;;;;;;;0.00;0.00;;;;;;;;;;5102130;28;20060;-93
2023/03/13 14:53:58;;;;;;;0.43;0.22;;;;;;;;;;5100569;28;20048;-94
2023/03/13 14:56:35;;;;;;;2.72;0.10;;;;;;;;;;5098352;27;22926;-94
2023/03/13 14:59:08;;;;;;;0.15;0.15;;;;;;;;;;5101631;28;20054;-95
2023/03/13 15:01:37;;;;;;;0.10;0.10;;;;;;;;;;5100122;28;20070;-94
2023/03/13 15:04:06;;;;;;;1.55;0.20;;;;;;;;;;5092293;28;20052;-93
2023/03/13 15:06:35;;;;;;;2.03;0.10;;;;;;;;;;5096383;27;20093;-93
2023/03/13 15:09:19;;;;;;;0.25;0.10;;;;;;;;;;5094651;28;20083;-94
2023/03/13 15:11:55;;;;;;;0.20;0.20;;;;;;;;;;5098716;28;20090;-95
2023/03/13 15:14:35;;;;;;;0.20;0.13;;;;;;;;;;5096674;28;20052;-93
2023/03/13 15:17:04;;;;;;;0.52;0.10;;;;;;;;;;5100253;28;20060;-95
2023/03/13 15:19:33;;;;;;;0.10;0.10;;;;;;;;;;5098882;28;20111;-93
2023/03/13 15:22:02;;;;;;;0.25;0.17;;;;;;;;;;5099686;28;20484;-93
2023/03/13 15:24:33;;;;;;;0.25;0.20;;;;;;;;;;5098328;28;20052;-94
2023/03/13 15:27:02;;;;;;;0.10;0.10;;;;;;;;;;5094106;28;20439;-93
2023/03/13 15:29:31;;;;;;;0.00;0.00;;;;;;;;;;5094412;28;20051;-94
2023/03/13 15:32:02;;;;;;;0.00;0.00;;;;;;;;;;5097997;28;20058;-92